sensor_id;sensor_type;location;lat;lon;timestamp;temperature;humidity
17053;DHT22;8643;48.824;11.422;2024-02-04T00:00:51;6.90;99.90
17053;DHT22;8643;48.824;11.422;2024-02-04T00:03:19;7.00;99.90
17053;DHT22;8643;48.824;11.422;2024-02-04T00:05:50;7.00;99.90
17053;DHT22;8643;48.824;11.422;2024-02-04T00:08:20;7.00;99.90
17053;DHT22;8643;48.824;11.422;2024-02-04T00:10:49;6.90;99.90
17053;DHT22;8643;48.824;11.422;2024-02-04T00:13:18;6.90;99.90
17053;DHT22;8643;48.824;11.422;2024-02-04T00:15:46;6.90;99.90
17053;DHT22;8643;48.824;11.422;2024-02-04T00:18:15;7.00;99.90
17053;DHT22;8643;48.824;11.422;2024-02-04T00:20:43;7.10;99.90
17053;DHT22;8643;48.824;11.422;2024-02-04T00:23:12;7.00;99.90
17053;DHT22;8643;48.824;11.422;2024-02-04T00:25:42;7.00;99.90
17053;DHT22;8643;48.824;11.422;2024-02-04T00:28:10;7.00;99.90
17053;DHT22;8643;48.824;11.422;2024-02-04T00:30:39;7.00;99.90
17053;DHT22;8643;48.824;11.422;2024-02-04T00:33:08;7.00;99.90
17053;DHT22;8643;48.824;11.422;2024-02-04T00:35:36;7.10;99.90
17053;DHT22;8643;48.824;11.422;2024-02-04T00:38:04;7.00;99.90
17053;DHT22;8643;48.824;11.422;2024-02-04T00:40:33;7.10;99.90
17053;DHT22;8643;48.824;11.422;2024-02-04T00:43:06;7.00;99.90
17053;DHT22;8643;48.824;11.422;2024-02-04T00:45:35;7.00;99.90
17053;DHT22;8643;48.824;11.422;2024-02-04T00:48:04;6.90;99.90
17053;DHT22;8643;48.824;11.422;2024-02-04T00:50:33;7.00;99.90
17053;DHT22;8643;48.824;11.422;2024-02-04T00:53:01;7.00;99.90
17053;DHT22;8643;48.824;11.422;2024-02-04T00:55:30;7.00;99.90
17053;DHT22;8643;48.824;11.422;2024-02-04T00:57:59;7.10;99.90
17053;DHT22;8643;48.824;11.422;2024-02-04T01:00:31;7.00;99.90
17053;DHT22;8643;48.824;11.422;2024-02-04T01:02:59;7.00;99.90
17053;DHT22;8643;48.824;11.422;2024-02-04T01:07:56;7.00;99.90
17053;DHT22;8643;48.824;11.422;2024-02-04T01:10:25;7.00;99.90
17053;DHT22;8643;48.824;11.422;2024-02-04T01:12:53;7.00;99.90
17053;DHT22;8643;48.824;11.422;2024-02-04T01:15:21;7.00;99.90
17053;DHT22;8643;48.824;11.422;2024-02-04T01:17:51;7.00;99.90
17053;DHT22;8643;48.824;11.422;2024-02-04T01:20:20;7.00;99.90
17053;DHT22;8643;48.824;11.422;2024-02-04T01:22:48;7.00;99.90
17053;DHT22;8643;48.824;11.422;2024-02-04T01:25:17;7.00;99.90
17053;DHT22;8643;48.824;11.422;2024-02-04T01:27:45;7.10;99.90
17053;DHT22;8643;48.824;11.422;2024-02-04T01:30:14;7.00;99.90
17053;DHT22;8643;48.824;11.422;2024-02-04T01:32:43;7.00;99.90
17053;DHT22;8643;48.824;11.422;2024-02-04T01:35:13;7.00;99.90
17053;DHT22;8643;48.824;11.422;2024-02-04T01:37:43;7.00;99.90
17053;DHT22;8643;48.824;11.422;2024-02-04T01:40:11;7.00;99.90
17053;DHT22;8643;48.824;11.422;2024-02-04T01:42:40;7.00;99.90
17053;DHT22;8643;48.824;11.422;2024-02-04T01:45:10;7.00;99.90
17053;DHT22;8643;48.824;11.422;2024-02-04T01:47:38;7.00;99.90
17053;DHT22;8643;48.824;11.422;2024-02-04T01:50:07;7.00;99.90
17053;DHT22;8643;48.824;11.422;2024-02-04T01:52:39;7.00;99.90
17053;DHT22;8643;48.824;11.422;2024-02-04T01:55:10;7.00;99.90
17053;DHT22;8643;48.824;11.422;2024-02-04T01:57:40;6.90;99.90
17053;DHT22;8643;48.824;11.422;2024-02-04T02:00:09;6.90;99.90
17053;DHT22;8643;48.824;11.422;2024-02-04T02:02:40;6.90;99.90
17053;DHT22;8643;48.824;11.422;2024-02-04T02:05:09;6.90;99.90
17053;DHT22;8643;48.824;11.422;2024-02-04T02:07:40;6.90;99.90
17053;DHT22;8643;48.824;11.422;2024-02-04T02:10:12;7.00;99.90
17053;DHT22;8643;48.824;11.422;2024-02-04T02:12:45;7.00;99.90
17053;DHT22;8643;48.824;11.422;2024-02-04T02:15:23;6.90;99.90
17053;DHT22;8643;48.824;11.422;2024-02-04T02:17:58;7.00;99.90
17053;DHT22;8643;48.824;11.422;2024-02-04T02:20:53;7.00;99.90
17053;DHT22;8643;48.824;11.422;2024-02-04T02:23:36;6.90;99.90
17053;DHT22;8643;48.824;11.422;2024-02-04T02:26:12;6.90;99.90
17053;DHT22;8643;48.824;11.422;2024-02-04T02:28:41;7.00;99.90
17053;DHT22;8643;48.824;11.422;2024-02-04T02:31:09;7.00;99.90
17053;DHT22;8643;48.824;11.422;2024-02-04T02:33:37;6.90;99.90
17053;DHT22;8643;48.824;11.422;2024-02-04T02:36:11;6.90;99.90
17053;DHT22;8643;48.824;11.422;2024-02-04T02:38:51;6.90;99.90
17053;DHT22;8643;48.824;11.422;2024-02-04T02:41:32;6.90;99.90
17053;DHT22;8643;48.824;11.422;2024-02-04T02:44:03;6.90;99.90
17053;DHT22;8643;48.824;11.422;2024-02-04T02:46:35;6.90;99.90
17053;DHT22;8643;48.824;11.422;2024-02-04T02:49:05;6.90;99.90
17053;DHT22;8643;48.824;11.422;2024-02-04T02:51:33;6.80;99.90
17053;DHT22;8643;48.824;11.422;2024-02-04T02:54:02;6.80;99.90
17053;DHT22;8643;48.824;11.422;2024-02-04T02:56:32;6.80;99.90
17053;DHT22;8643;48.824;11.422;2024-02-04T02:59:00;6.60;99.90
17053;DHT22;8643;48.824;11.422;2024-02-04T03:01:31;6.60;99.90
17053;DHT22;8643;48.824;11.422;2024-02-04T03:04:00;6.50;99.90
17053;DHT22;8643;48.824;11.422;2024-02-04T03:06:28;6.50;99.90
17053;DHT22;8643;48.824;11.422;2024-02-04T03:08:57;6.40;99.90
17053;DHT22;8643;48.824;11.422;2024-02-04T03:11:25;6.40;99.90
17053;DHT22;8643;48.824;11.422;2024-02-04T03:13:55;6.40;99.90
17053;DHT22;8643;48.824;11.422;2024-02-04T03:16:23;6.50;99.90
17053;DHT22;8643;48.824;11.422;2024-02-04T03:18:53;6.40;99.90
17053;DHT22;8643;48.824;11.422;2024-02-04T03:21:22;6.40;99.90
17053;DHT22;8643;48.824;11.422;2024-02-04T03:23:50;6.30;99.90
17053;DHT22;8643;48.824;11.422;2024-02-04T03:26:19;6.40;99.90
17053;DHT22;8643;48.824;11.422;2024-02-04T03:28:49;6.40;99.90
17053;DHT22;8643;48.824;11.422;2024-02-04T03:31:21;6.30;99.90
17053;DHT22;8643;48.824;11.422;2024-02-04T03:33:50;6.30;99.90
17053;DHT22;8643;48.824;11.422;2024-02-04T03:36:22;6.30;99.90
17053;DHT22;8643;48.824;11.422;2024-02-04T03:38:52;6.20;99.90
17053;DHT22;8643;48.824;11.422;2024-02-04T03:41:26;6.20;99.90
17053;DHT22;8643;48.824;11.422;2024-02-04T03:43:54;6.20;99.90
17053;DHT22;8643;48.824;11.422;2024-02-04T03:46:24;6.10;99.90
17053;DHT22;8643;48.824;11.422;2024-02-04T03:48:53;6.20;99.90
17053;DHT22;8643;48.824;11.422;2024-02-04T03:51:21;6.20;99.90
17053;DHT22;8643;48.824;11.422;2024-02-04T03:53:50;6.20;99.90
17053;DHT22;8643;48.824;11.422;2024-02-04T03:56:20;6.20;99.90
17053;DHT22;8643;48.824;11.422;2024-02-04T03:58:48;6.20;99.90
17053;DHT22;8643;48.824;11.422;2024-02-04T04:01:17;6.20;99.90
17053;DHT22;8643;48.824;11.422;2024-02-04T04:03:47;6.20;99.90
17053;DHT22;8643;48.824;11.422;2024-02-04T04:06:16;6.20;99.90
17053;DHT22;8643;48.824;11.422;2024-02-04T04:08:44;6.20;99.90
17053;DHT22;8643;48.824;11.422;2024-02-04T04:11:13;6.20;99.90
17053;DHT22;8643;48.824;11.422;2024-02-04T04:13:41;6.20;99.90
17053;DHT22;8643;48.824;11.422;2024-02-04T04:16:10;6.00;99.90
17053;DHT22;8643;48.824;11.422;2024-02-04T04:18:38;6.10;99.90
17053;DHT22;8643;48.824;11.422;2024-02-04T04:21:08;6.10;99.90
17053;DHT22;8643;48.824;11.422;2024-02-04T04:23:36;6.10;99.90
17053;DHT22;8643;48.824;11.422;2024-02-04T04:26:05;6.10;99.90
17053;DHT22;8643;48.824;11.422;2024-02-04T04:28:33;6.10;99.90
17053;DHT22;8643;48.824;11.422;2024-02-04T04:31:02;6.10;99.90
17053;DHT22;8643;48.824;11.422;2024-02-04T04:33:31;6.20;99.90
17053;DHT22;8643;48.824;11.422;2024-02-04T04:36:00;6.20;99.90
17053;DHT22;8643;48.824;11.422;2024-02-04T04:38:29;6.20;99.90
17053;DHT22;8643;48.824;11.422;2024-02-04T04:40:58;6.20;99.90
17053;DHT22;8643;48.824;11.422;2024-02-04T04:43:26;6.20;99.90
17053;DHT22;8643;48.824;11.422;2024-02-04T04:45:55;6.20;99.90
17053;DHT22;8643;48.824;11.422;2024-02-04T04:48:23;6.20;99.90
17053;DHT22;8643;48.824;11.422;2024-02-04T04:50:52;6.20;99.90
17053;DHT22;8643;48.824;11.422;2024-02-04T04:53:21;6.20;99.90
17053;DHT22;8643;48.824;11.422;2024-02-04T04:55:51;6.30;99.90
17053;DHT22;8643;48.824;11.422;2024-02-04T04:58:19;6.30;99.90
17053;DHT22;8643;48.824;11.422;2024-02-04T05:00:47;6.30;99.90
17053;DHT22;8643;48.824;11.422;2024-02-04T05:03:16;6.30;99.90
17053;DHT22;8643;48.824;11.422;2024-02-04T05:05:45;6.20;99.90
17053;DHT22;8643;48.824;11.422;2024-02-04T05:08:14;6.20;99.90
17053;DHT22;8643;48.824;11.422;2024-02-04T05:10:42;6.20;99.90
17053;DHT22;8643;48.824;11.422;2024-02-04T05:13:12;6.20;99.90
17053;DHT22;8643;48.824;11.422;2024-02-04T05:15:41;6.20;99.90
17053;DHT22;8643;48.824;11.422;2024-02-04T05:18:09;6.00;99.90
17053;DHT22;8643;48.824;11.422;2024-02-04T05:20:37;6.00;99.90
17053;DHT22;8643;48.824;11.422;2024-02-04T05:23:06;5.90;99.90
17053;DHT22;8643;48.824;11.422;2024-02-04T05:25:34;6.00;99.90
17053;DHT22;8643;48.824;11.422;2024-02-04T05:28:03;5.90;99.90
17053;DHT22;8643;48.824;11.422;2024-02-04T05:30:34;5.80;99.90
17053;DHT22;8643;48.824;11.422;2024-02-04T05:33:02;5.90;99.90
17053;DHT22;8643;48.824;11.422;2024-02-04T05:35:31;5.90;99.90
17053;DHT22;8643;48.824;11.422;2024-02-04T05:37:59;5.90;99.90
17053;DHT22;8643;48.824;11.422;2024-02-04T05:40:28;5.90;99.90
17053;DHT22;8643;48.824;11.422;2024-02-04T05:42:57;6.00;99.90
17053;DHT22;8643;48.824;11.422;2024-02-04T05:45:25;5.90;99.90
17053;DHT22;8643;48.824;11.422;2024-02-04T05:47:55;6.00;99.90
17053;DHT22;8643;48.824;11.422;2024-02-04T05:50:24;6.00;99.90
17053;DHT22;8643;48.824;11.422;2024-02-04T05:52:52;6.00;99.90
17053;DHT22;8643;48.824;11.422;2024-02-04T05:55:21;6.00;99.90
17053;DHT22;8643;48.824;11.422;2024-02-04T05:57:49;6.00;99.90
17053;DHT22;8643;48.824;11.422;2024-02-04T06:00:19;5.90;99.90
17053;DHT22;8643;48.824;11.422;2024-02-04T06:02:47;5.90;99.90
17053;DHT22;8643;48.824;11.422;2024-02-04T06:05:17;5.90;99.90
17053;DHT22;8643;48.824;11.422;2024-02-04T06:07:46;5.90;99.90
17053;DHT22;8643;48.824;11.422;2024-02-04T06:10:15;5.90;99.90
17053;DHT22;8643;48.824;11.422;2024-02-04T06:12:45;5.80;99.90
17053;DHT22;8643;48.824;11.422;2024-02-04T06:15:15;5.90;99.90
17053;DHT22;8643;48.824;11.422;2024-02-04T06:17:45;5.90;99.90
17053;DHT22;8643;48.824;11.422;2024-02-04T06:20:13;5.80;99.90
17053;DHT22;8643;48.824;11.422;2024-02-04T06:22:43;5.80;99.90
17053;DHT22;8643;48.824;11.422;2024-02-04T06:25:11;5.90;99.90
17053;DHT22;8643;48.824;11.422;2024-02-04T06:27:40;5.90;99.90
17053;DHT22;8643;48.824;11.422;2024-02-04T06:30:09;5.80;99.90
17053;DHT22;8643;48.824;11.422;2024-02-04T06:32:39;5.90;99.90
17053;DHT22;8643;48.824;11.422;2024-02-04T06:35:07;5.90;99.90
17053;DHT22;8643;48.824;11.422;2024-02-04T06:37:36;5.90;99.90
17053;DHT22;8643;48.824;11.422;2024-02-04T06:40:07;6.00;99.90
17053;DHT22;8643;48.824;11.422;2024-02-04T06:42:37;6.00;99.90
17053;DHT22;8643;48.824;11.422;2024-02-04T06:45:06;6.00;99.90
17053;DHT22;8643;48.824;11.422;2024-02-04T06:47:34;6.00;99.90
17053;DHT22;8643;48.824;11.422;2024-02-04T06:50:04;6.00;99.90
17053;DHT22;8643;48.824;11.422;2024-02-04T06:52:35;6.00;99.90
17053;DHT22;8643;48.824;11.422;2024-02-04T06:55:06;5.90;99.90
17053;DHT22;8643;48.824;11.422;2024-02-04T06:57:35;5.90;99.90
17053;DHT22;8643;48.824;11.422;2024-02-04T07:00:04;5.90;99.90
17053;DHT22;8643;48.824;11.422;2024-02-04T07:02:35;5.90;99.90
17053;DHT22;8643;48.824;11.422;2024-02-04T07:05:04;5.90;99.90
17053;DHT22;8643;48.824;11.422;2024-02-04T07:07:33;5.90;99.90
17053;DHT22;8643;48.824;11.422;2024-02-04T07:10:02;6.00;99.90
17053;DHT22;8643;48.824;11.422;2024-02-04T07:12:32;6.10;99.90
17053;DHT22;8643;48.824;11.422;2024-02-04T07:15:00;6.10;99.90
17053;DHT22;8643;48.824;11.422;2024-02-04T07:17:29;6.10;99.90
17053;DHT22;8643;48.824;11.422;2024-02-04T07:19:58;6.10;99.90
17053;DHT22;8643;48.824;11.422;2024-02-04T07:22:26;6.20;99.90
17053;DHT22;8643;48.824;11.422;2024-02-04T07:24:55;6.10;99.90
17053;DHT22;8643;48.824;11.422;2024-02-04T07:27:23;6.20;99.90
17053;DHT22;8643;48.824;11.422;2024-02-04T07:29:54;6.20;99.90
17053;DHT22;8643;48.824;11.422;2024-02-04T07:32:25;6.20;99.90
17053;DHT22;8643;48.824;11.422;2024-02-04T07:34:53;6.20;99.90
17053;DHT22;8643;48.824;11.422;2024-02-04T07:37:22;6.20;99.90
17053;DHT22;8643;48.824;11.422;2024-02-04T07:39:51;6.20;99.90
17053;DHT22;8643;48.824;11.422;2024-02-04T07:42:19;6.20;99.90
17053;DHT22;8643;48.824;11.422;2024-02-04T07:44:48;6.10;99.90
17053;DHT22;8643;48.824;11.422;2024-02-04T07:47:17;6.20;99.90
17053;DHT22;8643;48.824;11.422;2024-02-04T07:49:48;6.20;99.90
17053;DHT22;8643;48.824;11.422;2024-02-04T07:52:17;6.20;99.90
17053;DHT22;8643;48.824;11.422;2024-02-04T07:54:45;6.20;99.90
17053;DHT22;8643;48.824;11.422;2024-02-04T07:57:14;6.30;99.90
17053;DHT22;8643;48.824;11.422;2024-02-04T07:59:42;6.30;99.90
17053;DHT22;8643;48.824;11.422;2024-02-04T08:02:11;6.30;99.90
17053;DHT22;8643;48.824;11.422;2024-02-04T08:04:41;6.30;99.90
17053;DHT22;8643;48.824;11.422;2024-02-04T08:07:10;6.30;99.90
17053;DHT22;8643;48.824;11.422;2024-02-04T08:09:38;6.40;99.90
17053;DHT22;8643;48.824;11.422;2024-02-04T08:12:07;6.40;99.90
17053;DHT22;8643;48.824;11.422;2024-02-04T08:14:36;6.40;99.90
17053;DHT22;8643;48.824;11.422;2024-02-04T08:17:05;6.40;99.90
17053;DHT22;8643;48.824;11.422;2024-02-04T08:19:33;6.50;99.90
17053;DHT22;8643;48.824;11.422;2024-02-04T08:22:03;6.50;99.90
17053;DHT22;8643;48.824;11.422;2024-02-04T08:24:32;9.40;99.90
17053;DHT22;8643;48.824;11.422;2024-02-04T08:27:01;6.50;99.90
17053;DHT22;8643;48.824;11.422;2024-02-04T08:29:30;6.50;99.90
17053;DHT22;8643;48.824;11.422;2024-02-04T08:31:59;6.50;99.90
17053;DHT22;8643;48.824;11.422;2024-02-04T08:34:28;6.60;99.90
17053;DHT22;8643;48.824;11.422;2024-02-04T08:36:56;6.60;99.90
17053;DHT22;8643;48.824;11.422;2024-02-04T08:39:26;6.60;99.90
17053;DHT22;8643;48.824;11.422;2024-02-04T08:41:57;6.60;99.90
17053;DHT22;8643;48.824;11.422;2024-02-04T08:44:25;6.60;99.90
17053;DHT22;8643;48.824;11.422;2024-02-04T08:47:05;6.60;99.90
17053;DHT22;8643;48.824;11.422;2024-02-04T08:49:37;6.60;99.90
17053;DHT22;8643;48.824;11.422;2024-02-04T08:52:06;6.60;99.90
17053;DHT22;8643;48.824;11.422;2024-02-04T08:54:36;6.60;99.90
17053;DHT22;8643;48.824;11.422;2024-02-04T08:57:05;6.60;99.90
17053;DHT22;8643;48.824;11.422;2024-02-04T08:59:33;6.60;99.90
17053;DHT22;8643;48.824;11.422;2024-02-04T09:02:02;6.60;99.90
17053;DHT22;8643;48.824;11.422;2024-02-04T09:04:36;6.60;99.90
17053;DHT22;8643;48.824;11.422;2024-02-04T09:07:08;6.60;99.90
17053;DHT22;8643;48.824;11.422;2024-02-04T09:09:38;6.70;99.90
17053;DHT22;8643;48.824;11.422;2024-02-04T09:12:10;6.70;99.90
17053;DHT22;8643;48.824;11.422;2024-02-04T09:14:38;6.70;99.90
17053;DHT22;8643;48.824;11.422;2024-02-04T09:17:07;6.90;99.90
17053;DHT22;8643;48.824;11.422;2024-02-04T09:19:36;6.80;99.90
17053;DHT22;8643;48.824;11.422;2024-02-04T09:22:09;6.80;99.90
17053;DHT22;8643;48.824;11.422;2024-02-04T09:24:39;6.80;99.90
17053;DHT22;8643;48.824;11.422;2024-02-04T09:27:07;6.80;99.90
17053;DHT22;8643;48.824;11.422;2024-02-04T09:29:36;6.80;99.90
17053;DHT22;8643;48.824;11.422;2024-02-04T09:32:05;6.80;99.90
17053;DHT22;8643;48.824;11.422;2024-02-04T09:34:35;6.80;99.90
17053;DHT22;8643;48.824;11.422;2024-02-04T09:37:03;6.90;99.90
17053;DHT22;8643;48.824;11.422;2024-02-04T09:39:32;7.00;99.90
17053;DHT22;8643;48.824;11.422;2024-02-04T09:42:03;7.00;99.90
17053;DHT22;8643;48.824;11.422;2024-02-04T09:44:32;7.10;99.90
17053;DHT22;8643;48.824;11.422;2024-02-04T09:47:03;7.10;99.90
17053;DHT22;8643;48.824;11.422;2024-02-04T09:49:30;7.10;99.90
17053;DHT22;8643;48.824;11.422;2024-02-04T09:52:01;7.20;99.90
17053;DHT22;8643;48.824;11.422;2024-02-04T09:54:41;7.10;99.90
17053;DHT22;8643;48.824;11.422;2024-02-04T09:57:14;7.10;99.90
17053;DHT22;8643;48.824;11.422;2024-02-04T09:59:44;8.30;99.90
17053;DHT22;8643;48.824;11.422;2024-02-04T10:02:15;7.20;99.90
17053;DHT22;8643;48.824;11.422;2024-02-04T10:04:47;7.20;99.90
17053;DHT22;8643;48.824;11.422;2024-02-04T10:07:16;7.40;99.90
17053;DHT22;8643;48.824;11.422;2024-02-04T10:09:46;7.40;99.90
17053;DHT22;8643;48.824;11.422;2024-02-04T10:12:17;7.50;99.90
17053;DHT22;8643;48.824;11.422;2024-02-04T10:14:45;7.60;99.90
17053;DHT22;8643;48.824;11.422;2024-02-04T10:17:15;7.70;99.90
17053;DHT22;8643;48.824;11.422;2024-02-04T10:19:43;7.70;99.90
17053;DHT22;8643;48.824;11.422;2024-02-04T10:22:12;7.70;99.90
17053;DHT22;8643;48.824;11.422;2024-02-04T10:24:40;7.70;99.90
17053;DHT22;8643;48.824;11.422;2024-02-04T10:27:10;7.70;99.90
17053;DHT22;8643;48.824;11.422;2024-02-04T10:29:53;7.80;99.90
17053;DHT22;8643;48.824;11.422;2024-02-04T10:34:52;7.80;99.90
17053;DHT22;8643;48.824;11.422;2024-02-04T10:37:20;7.80;99.90
17053;DHT22;8643;48.824;11.422;2024-02-04T10:39:50;7.80;99.90
17053;DHT22;8643;48.824;11.422;2024-02-04T10:42:24;7.60;99.90
17053;DHT22;8643;48.824;11.422;2024-02-04T10:44:58;7.70;99.90
17053;DHT22;8643;48.824;11.422;2024-02-04T10:47:31;7.70;99.90
17053;DHT22;8643;48.824;11.422;2024-02-04T10:50:03;7.70;99.90
17053;DHT22;8643;48.824;11.422;2024-02-04T10:52:35;7.70;99.90
17053;DHT22;8643;48.824;11.422;2024-02-04T10:55:08;7.70;99.90
17053;DHT22;8643;48.824;11.422;2024-02-04T10:57:38;7.70;99.90
17053;DHT22;8643;48.824;11.422;2024-02-04T11:00:10;7.60;99.90
17053;DHT22;8643;48.824;11.422;2024-02-04T11:02:40;7.50;99.90
17053;DHT22;8643;48.824;11.422;2024-02-04T11:05:14;7.50;99.90
17053;DHT22;8643;48.824;11.422;2024-02-04T11:07:44;7.50;99.90
17053;DHT22;8643;48.824;11.422;2024-02-04T11:10:14;7.50;99.90
17053;DHT22;8643;48.824;11.422;2024-02-04T11:12:43;7.60;99.90
17053;DHT22;8643;48.824;11.422;2024-02-04T11:15:17;7.50;99.90
17053;DHT22;8643;48.824;11.422;2024-02-04T11:18:15;7.60;99.90
17053;DHT22;8643;48.824;11.422;2024-02-04T11:21:34;7.60;99.90
17053;DHT22;8643;48.824;11.422;2024-02-04T11:24:29;7.60;99.90
17053;DHT22;8643;48.824;11.422;2024-02-04T11:27:10;7.60;99.90
17053;DHT22;8643;48.824;11.422;2024-02-04T11:29:40;7.70;99.90
17053;DHT22;8643;48.824;11.422;2024-02-04T11:32:10;7.70;99.90
17053;DHT22;8643;48.824;11.422;2024-02-04T11:34:39;7.80;99.90
17053;DHT22;8643;48.824;11.422;2024-02-04T11:37:15;7.80;99.90
17053;DHT22;8643;48.824;11.422;2024-02-04T11:39:54;7.90;99.90
17053;DHT22;8643;48.824;11.422;2024-02-04T11:42:31;7.80;99.90
17053;DHT22;8643;48.824;11.422;2024-02-04T11:45:07;7.80;99.90
17053;DHT22;8643;48.824;11.422;2024-02-04T11:47:38;7.80;99.90
17053;DHT22;8643;48.824;11.422;2024-02-04T11:50:07;7.80;99.90
17053;DHT22;8643;48.824;11.422;2024-02-04T11:52:39;7.90;99.90
17053;DHT22;8643;48.824;11.422;2024-02-04T11:55:13;7.80;99.90
17053;DHT22;8643;48.824;11.422;2024-02-04T11:57:43;7.90;99.90
17053;DHT22;8643;48.824;11.422;2024-02-04T12:00:13;7.90;99.90
17053;DHT22;8643;48.824;11.422;2024-02-04T12:02:45;7.90;99.90
17053;DHT22;8643;48.824;11.422;2024-02-04T12:05:14;7.90;99.90
17053;DHT22;8643;48.824;11.422;2024-02-04T12:07:43;8.00;99.90
17053;DHT22;8643;48.824;11.422;2024-02-04T12:10:12;8.10;99.90
17053;DHT22;8643;48.824;11.422;2024-02-04T12:12:40;8.00;99.90
17053;DHT22;8643;48.824;11.422;2024-02-04T12:15:10;8.00;99.90
17053;DHT22;8643;48.824;11.422;2024-02-04T12:17:38;8.00;99.90
17053;DHT22;8643;48.824;11.422;2024-02-04T12:20:10;8.10;99.90
17053;DHT22;8643;48.824;11.422;2024-02-04T12:22:39;8.10;99.90
17053;DHT22;8643;48.824;11.422;2024-02-04T12:25:08;8.10;99.90
17053;DHT22;8643;48.824;11.422;2024-02-04T12:30:07;8.00;99.90
17053;DHT22;8643;48.824;11.422;2024-02-04T12:32:37;8.00;99.90
17053;DHT22;8643;48.824;11.422;2024-02-04T12:35:08;8.00;99.90
17053;DHT22;8643;48.824;11.422;2024-02-04T12:37:50;8.10;99.90
17053;DHT22;8643;48.824;11.422;2024-02-04T12:40:23;8.10;99.90
17053;DHT22;8643;48.824;11.422;2024-02-04T12:42:53;8.20;99.90
17053;DHT22;8643;48.824;11.422;2024-02-04T12:45:24;8.20;99.90
17053;DHT22;8643;48.824;11.422;2024-02-04T12:47:55;8.20;99.90
17053;DHT22;8643;48.824;11.422;2024-02-04T12:50:25;8.30;99.90
17053;DHT22;8643;48.824;11.422;2024-02-04T12:53:05;8.30;99.90
17053;DHT22;8643;48.824;11.422;2024-02-04T12:55:35;8.40;99.90
17053;DHT22;8643;48.824;11.422;2024-02-04T12:58:05;8.30;99.90
17053;DHT22;8643;48.824;11.422;2024-02-04T13:00:36;8.30;99.90
17053;DHT22;8643;48.824;11.422;2024-02-04T13:03:06;8.30;99.90
17053;DHT22;8643;48.824;11.422;2024-02-04T13:05:37;8.30;99.90
17053;DHT22;8643;48.824;11.422;2024-02-04T13:08:06;8.30;99.90
17053;DHT22;8643;48.824;11.422;2024-02-04T13:10:36;8.30;99.90
17053;DHT22;8643;48.824;11.422;2024-02-04T13:13:05;8.30;99.90
17053;DHT22;8643;48.824;11.422;2024-02-04T13:15:38;8.20;99.90
17053;DHT22;8643;48.824;11.422;2024-02-04T13:18:09;8.20;99.90
17053;DHT22;8643;48.824;11.422;2024-02-04T13:20:40;8.20;99.90
17053;DHT22;8643;48.824;11.422;2024-02-04T13:23:09;8.20;99.90
17053;DHT22;8643;48.824;11.422;2024-02-04T13:25:38;8.20;99.90
17053;DHT22;8643;48.824;11.422;2024-02-04T13:28:06;8.30;99.90
17053;DHT22;8643;48.824;11.422;2024-02-04T13:30:35;8.30;99.90
17053;DHT22;8643;48.824;11.422;2024-02-04T13:33:04;8.30;99.90
17053;DHT22;8643;48.824;11.422;2024-02-04T13:35:33;8.30;99.90
17053;DHT22;8643;48.824;11.422;2024-02-04T13:38:03;8.30;99.90
17053;DHT22;8643;48.824;11.422;2024-02-04T13:40:32;8.30;99.90
17053;DHT22;8643;48.824;11.422;2024-02-04T13:43:01;8.40;99.90
17053;DHT22;8643;48.824;11.422;2024-02-04T13:45:29;8.40;99.90
17053;DHT22;8643;48.824;11.422;2024-02-04T13:47:58;8.30;99.90
17053;DHT22;8643;48.824;11.422;2024-02-04T13:50:26;8.40;99.90
17053;DHT22;8643;48.824;11.422;2024-02-04T13:52:55;8.40;99.90
17053;DHT22;8643;48.824;11.422;2024-02-04T13:55:26;8.40;99.90
17053;DHT22;8643;48.824;11.422;2024-02-04T13:57:54;8.50;99.90
17053;DHT22;8643;48.824;11.422;2024-02-04T14:02:52;8.50;99.90
17053;DHT22;8643;48.824;11.422;2024-02-04T14:05:20;8.50;99.90
17053;DHT22;8643;48.824;11.422;2024-02-04T14:07:48;8.50;99.90
17053;DHT22;8643;48.824;11.422;2024-02-04T14:10:17;8.50;99.90
17053;DHT22;8643;48.824;11.422;2024-02-04T14:12:47;8.50;99.90
17053;DHT22;8643;48.824;11.422;2024-02-04T14:15:15;8.50;99.90
17053;DHT22;8643;48.824;11.422;2024-02-04T14:17:44;8.50;99.90
17053;DHT22;8643;48.824;11.422;2024-02-04T14:20:13;8.50;99.90
17053;DHT22;8643;48.824;11.422;2024-02-04T14:22:41;8.50;99.90
17053;DHT22;8643;48.824;11.422;2024-02-04T14:25:10;8.50;99.90
17053;DHT22;8643;48.824;11.422;2024-02-04T14:27:39;8.60;99.90
17053;DHT22;8643;48.824;11.422;2024-02-04T14:30:10;8.60;99.90
17053;DHT22;8643;48.824;11.422;2024-02-04T14:32:39;8.50;99.90
17053;DHT22;8643;48.824;11.422;2024-02-04T14:35:08;8.50;99.90
17053;DHT22;8643;48.824;11.422;2024-02-04T14:37:37;8.60;99.90
17053;DHT22;8643;48.824;11.422;2024-02-04T14:40:07;8.50;99.90
17053;DHT22;8643;48.824;11.422;2024-02-04T14:42:37;8.50;99.90
17053;DHT22;8643;48.824;11.422;2024-02-04T14:45:10;8.50;99.90
17053;DHT22;8643;48.824;11.422;2024-02-04T14:50:09;8.50;99.90
17053;DHT22;8643;48.824;11.422;2024-02-04T14:55:08;8.50;99.90
17053;DHT22;8643;48.824;11.422;2024-02-04T14:57:38;8.40;99.90
17053;DHT22;8643;48.824;11.422;2024-02-04T15:00:07;8.40;99.90
17053;DHT22;8643;48.824;11.422;2024-02-04T15:02:38;8.50;99.90
17053;DHT22;8643;48.824;11.422;2024-02-04T15:05:07;8.50;99.90
17053;DHT22;8643;48.824;11.422;2024-02-04T15:07:36;8.50;99.90
17053;DHT22;8643;48.824;11.422;2024-02-04T15:10:05;8.40;99.90
17053;DHT22;8643;48.824;11.422;2024-02-04T15:12:35;8.40;99.90
17053;DHT22;8643;48.824;11.422;2024-02-04T15:15:05;8.50;99.90
17053;DHT22;8643;48.824;11.422;2024-02-04T15:17:35;8.40;99.90
17053;DHT22;8643;48.824;11.422;2024-02-04T15:20:07;8.50;99.90
17053;DHT22;8643;48.824;11.422;2024-02-04T15:22:44;8.40;99.90
17053;DHT22;8643;48.824;11.422;2024-02-04T15:25:14;8.50;99.90
17053;DHT22;8643;48.824;11.422;2024-02-04T15:27:45;8.50;99.90
17053;DHT22;8643;48.824;11.422;2024-02-04T15:30:14;8.50;99.90
17053;DHT22;8643;48.824;11.422;2024-02-04T15:32:46;8.50;99.90
17053;DHT22;8643;48.824;11.422;2024-02-04T15:35:17;8.50;99.90
17053;DHT22;8643;48.824;11.422;2024-02-04T15:37:46;8.60;99.90
17053;DHT22;8643;48.824;11.422;2024-02-04T15:40:15;8.50;99.90
17053;DHT22;8643;48.824;11.422;2024-02-04T15:42:44;8.60;99.90
17053;DHT22;8643;48.824;11.422;2024-02-04T15:45:13;8.60;99.90
17053;DHT22;8643;48.824;11.422;2024-02-04T15:47:50;8.60;99.90
17053;DHT22;8643;48.824;11.422;2024-02-04T15:50:22;8.70;99.90
17053;DHT22;8643;48.824;11.422;2024-02-04T15:52:52;8.70;99.90
17053;DHT22;8643;48.824;11.422;2024-02-04T15:55:21;8.70;99.90
17053;DHT22;8643;48.824;11.422;2024-02-04T15:57:51;8.80;99.90
17053;DHT22;8643;48.824;11.422;2024-02-04T16:00:22;8.80;99.90
17053;DHT22;8643;48.824;11.422;2024-02-04T16:02:53;8.80;99.90
17053;DHT22;8643;48.824;11.422;2024-02-04T16:05:25;8.80;99.90
17053;DHT22;8643;48.824;11.422;2024-02-04T16:07:55;8.90;99.90
17053;DHT22;8643;48.824;11.422;2024-02-04T16:10:26;8.80;99.90
17053;DHT22;8643;48.824;11.422;2024-02-04T16:12:57;8.80;99.90
17053;DHT22;8643;48.824;11.422;2024-02-04T16:15:28;8.80;99.90
17053;DHT22;8643;48.824;11.422;2024-02-04T16:17:57;8.90;99.90